createdAt,value
2022-12-04T00:00:34.490Z,1.70
2022-12-04T00:03:01.816Z,1.70
2022-12-04T00:05:29.002Z,1.70
2022-12-04T00:07:56.252Z,1.70
2022-12-04T00:10:23.669Z,1.70
2022-12-04T00:12:50.878Z,1.70
2022-12-04T00:15:26.457Z,1.70
2022-12-04T00:17:54.471Z,1.70
2022-12-04T00:20:22.912Z,1.70
2022-12-04T00:22:50.189Z,1.70
2022-12-04T00:25:17.533Z,1.70
2022-12-04T00:27:44.726Z,1.70
2022-12-04T00:30:12.410Z,1.80
2022-12-04T00:32:39.596Z,1.80
2022-12-04T00:35:07.264Z,1.80
2022-12-04T00:37:34.447Z,1.80
2022-12-04T00:40:01.856Z,1.70
2022-12-04T00:42:29.106Z,1.60
2022-12-04T00:44:56.245Z,1.60
2022-12-04T00:47:23.439Z,1.70
2022-12-04T00:49:50.656Z,1.70
2022-12-04T00:52:17.842Z,1.70
2022-12-04T00:54:45.029Z,1.70
2022-12-04T00:57:12.194Z,1.60
2022-12-04T00:59:39.413Z,1.60
2022-12-04T01:02:06.698Z,1.60
2022-12-04T01:04:33.829Z,1.60
2022-12-04T01:07:04.924Z,1.60
2022-12-04T01:09:33.023Z,1.60
2022-12-04T01:12:00.212Z,1.60
2022-12-04T01:14:27.411Z,1.60
2022-12-04T01:16:54.871Z,1.60
2022-12-04T01:19:22.376Z,1.60
2022-12-04T01:21:49.563Z,1.60
2022-12-04T01:24:16.862Z,1.60
2022-12-04T01:26:44.060Z,1.60
2022-12-04T01:29:11.231Z,1.60
2022-12-04T01:31:38.467Z,1.70
2022-12-04T01:34:05.706Z,1.70
2022-12-04T01:36:32.844Z,1.70
2022-12-04T01:38:59.998Z,1.60
2022-12-04T01:41:29.926Z,1.60
2022-12-04T01:44:15.544Z,1.60
2022-12-04T01:46:45.675Z,1.70
2022-12-04T01:49:19.748Z,1.70
2022-12-04T01:51:52.725Z,1.70
2022-12-04T01:54:32.770Z,1.70
2022-12-04T01:57:06.302Z,1.60
2022-12-04T01:59:42.868Z,1.70
2022-12-04T02:02:16.010Z,1.70
2022-12-04T02:04:44.757Z,1.70
2022-12-04T02:07:12.302Z,1.70
2022-12-04T02:09:40.705Z,1.80
2022-12-04T02:12:25.962Z,1.80
2022-12-04T02:14:58.859Z,1.80
2022-12-04T02:17:36.766Z,1.80
2022-12-04T02:20:33.528Z,1.80
2022-12-04T02:23:18.852Z,1.80
2022-12-04T02:26:10.599Z,1.80
2022-12-04T02:28:43.197Z,1.80
2022-12-04T02:31:18.105Z,1.70
2022-12-04T02:33:58.465Z,1.70
2022-12-04T02:36:35.110Z,1.70
2022-12-04T02:39:13.774Z,1.60
2022-12-04T02:42:05.172Z,1.60
2022-12-04T02:44:41.068Z,1.60
2022-12-04T02:47:13.240Z,1.60
2022-12-04T02:50:12.636Z,1.60
2022-12-04T02:52:51.265Z,1.60
2022-12-04T02:55:42.365Z,1.60
2022-12-04T02:58:17.371Z,1.60
2022-12-04T03:00:47.207Z,1.60
2022-12-04T03:03:23.074Z,1.60
2022-12-04T03:05:53.283Z,1.60
2022-12-04T03:08:26.070Z,1.60
2022-12-04T03:10:56.725Z,1.60
2022-12-04T03:13:31.062Z,1.60
2022-12-04T03:16:18.608Z,1.60
2022-12-04T03:18:55.716Z,1.60
2022-12-04T03:21:27.930Z,1.60
2022-12-04T03:23:59.187Z,1.60
2022-12-04T03:26:32.534Z,1.60
2022-12-04T03:29:10.358Z,1.60
2022-12-04T03:31:45.539Z,1.60
2022-12-04T03:34:17.573Z,1.60
2022-12-04T03:37:00.745Z,1.60
2022-12-04T03:39:58.610Z,1.60
2022-12-04T03:42:40.995Z,1.60
2022-12-04T03:45:22.205Z,1.60
2022-12-04T03:48:00.843Z,1.60
2022-12-04T03:50:41.699Z,1.60
2022-12-04T03:53:18.642Z,1.60
2022-12-04T03:56:20.479Z,1.70
2022-12-04T03:58:52.425Z,1.60
2022-12-04T04:01:25.484Z,1.50
2022-12-04T04:03:56.333Z,1.50
2022-12-04T04:06:36.896Z,1.60
2022-12-04T04:09:10.656Z,1.60
2022-12-04T04:11:48.770Z,1.60
2022-12-04T04:14:42.391Z,1.60
2022-12-04T04:17:37.969Z,1.60
2022-12-04T04:20:47.975Z,1.60
2022-12-04T04:23:36.423Z,1.60
2022-12-04T04:26:04.251Z,1.70
2022-12-04T04:28:36.086Z,1.60
2022-12-04T04:31:32.982Z,1.60
2022-12-04T04:34:39.853Z,1.60
2022-12-04T04:37:32.878Z,1.70
2022-12-04T04:40:35.737Z,1.70
2022-12-04T04:43:09.865Z,1.70
2022-12-04T04:45:47.159Z,1.70
2022-12-04T04:48:25.640Z,1.70
2022-12-04T04:50:53.432Z,1.70
2022-12-04T04:53:26.767Z,1.70
2022-12-04T04:55:54.188Z,1.70
2022-12-04T04:58:21.649Z,1.70
2022-12-04T05:01:08.729Z,1.70
2022-12-04T05:03:36.138Z,1.70
2022-12-04T05:06:03.850Z,1.70
2022-12-04T05:08:30.993Z,1.80
2022-12-04T05:10:58.222Z,1.80
2022-12-04T05:13:25.618Z,1.80
2022-12-04T05:16:04.754Z,1.80
2022-12-04T05:18:33.047Z,1.90
2022-12-04T05:21:04.513Z,1.80
2022-12-04T05:23:31.636Z,1.90
2022-12-04T05:26:03.293Z,1.80
2022-12-04T05:28:30.550Z,1.80
2022-12-04T05:30:59.829Z,1.90
2022-12-04T05:33:27.130Z,1.80
2022-12-04T05:36:06.097Z,1.80
2022-12-04T05:38:35.257Z,1.80
2022-12-04T05:41:04.946Z,1.80
2022-12-04T05:43:32.909Z,1.90
2022-12-04T05:46:08.728Z,1.90
2022-12-04T05:48:36.230Z,1.90
2022-12-04T05:51:11.080Z,1.90
2022-12-04T05:53:39.106Z,1.90
2022-12-04T05:56:07.304Z,1.90
2022-12-04T05:58:38.293Z,1.90
2022-12-04T06:01:15.654Z,1.90
2022-12-04T06:03:43.132Z,1.90
2022-12-04T06:06:22.046Z,1.90
2022-12-04T06:08:51.708Z,1.90
2022-12-04T06:11:25.126Z,1.90
2022-12-04T06:13:53.179Z,1.90
2022-12-04T06:16:26.503Z,1.90
2022-12-04T06:18:59.797Z,1.90
2022-12-04T06:21:29.190Z,1.90
2022-12-04T06:23:56.495Z,1.90
2022-12-04T06:26:24.253Z,1.90
2022-12-04T06:28:56.211Z,1.90
2022-12-04T06:31:24.764Z,1.90
2022-12-04T06:33:54.174Z,1.90
2022-12-04T06:36:23.155Z,1.90
2022-12-04T06:38:51.639Z,1.80
2022-12-04T06:41:21.330Z,1.80
2022-12-04T06:43:48.825Z,1.80
2022-12-04T06:46:22.673Z,1.90
2022-12-04T06:48:50.507Z,1.90
2022-12-04T06:51:26.485Z,1.90
2022-12-04T06:53:53.953Z,1.90
2022-12-04T06:56:23.536Z,1.80
2022-12-04T06:58:53.236Z,1.70
2022-12-04T07:01:23.188Z,1.70
2022-12-04T07:03:51.923Z,1.70
2022-12-04T07:06:27.523Z,1.70
2022-12-04T07:08:58.569Z,1.80
2022-12-04T07:11:25.982Z,1.80
2022-12-04T07:13:54.767Z,1.80
2022-12-04T07:16:25.286Z,1.80
2022-12-04T07:18:56.519Z,1.80
2022-12-04T07:21:29.754Z,1.80
2022-12-04T07:24:01.308Z,1.80
2022-12-04T07:26:30.043Z,1.70
2022-12-04T07:28:58.513Z,1.70
2022-12-04T07:31:28.209Z,1.70
2022-12-04T07:33:56.068Z,1.70
2022-12-04T07:36:24.001Z,1.70
2022-12-04T07:38:51.659Z,1.80
2022-12-04T07:41:19.478Z,1.80
2022-12-04T07:43:47.264Z,1.80
2022-12-04T07:46:19.847Z,1.80
2022-12-04T07:48:47.109Z,1.80
2022-12-04T07:51:22.768Z,1.70
2022-12-04T07:53:51.643Z,1.70
2022-12-04T07:56:19.214Z,1.70
2022-12-04T07:58:46.978Z,1.70
2022-12-04T08:01:24.121Z,1.70
2022-12-04T08:03:54.991Z,1.80
2022-12-04T08:06:24.295Z,1.70
2022-12-04T08:08:52.451Z,1.70
2022-12-04T08:11:22.643Z,1.80
2022-12-04T08:13:57.619Z,1.80
2022-12-04T08:16:26.326Z,1.90
2022-12-04T08:18:55.879Z,1.80
2022-12-04T08:21:25.660Z,1.90
2022-12-04T08:23:54.985Z,1.90
2022-12-04T08:26:24.186Z,1.90
2022-12-04T08:28:56.026Z,2.00
2022-12-04T08:31:26.386Z,2.00
2022-12-04T08:33:56.847Z,2.00
2022-12-04T08:36:24.804Z,2.00
2022-12-04T08:38:52.580Z,2.10
2022-12-04T08:41:24.186Z,2.10
2022-12-04T08:43:54.530Z,2.10
2022-12-04T08:46:22.620Z,2.10
2022-12-04T08:48:49.790Z,2.20
2022-12-04T08:51:20.526Z,2.20
2022-12-04T08:53:47.922Z,2.20
2022-12-04T08:56:15.091Z,2.20
2022-12-04T08:58:42.238Z,2.30
2022-12-04T09:01:14.220Z,2.30
2022-12-04T09:03:42.377Z,2.30
2022-12-04T09:06:12.012Z,2.30
2022-12-04T09:08:39.253Z,2.30
2022-12-04T09:11:08.757Z,2.30
2022-12-04T09:13:36.619Z,2.30
2022-12-04T09:16:07.649Z,2.40
2022-12-04T09:18:36.155Z,2.50
2022-12-04T09:21:06.322Z,2.50
2022-12-04T09:23:35.524Z,2.60
2022-12-04T09:26:03.368Z,2.70
2022-12-04T09:28:30.595Z,2.70
2022-12-04T09:31:04.615Z,2.70
2022-12-04T09:33:32.855Z,2.80
2022-12-04T09:36:01.608Z,2.80
2022-12-04T09:38:29.782Z,2.80
2022-12-04T09:41:07.134Z,2.80
2022-12-04T09:43:43.702Z,2.80
2022-12-04T09:46:19.165Z,2.90
2022-12-04T09:48:48.577Z,2.90
2022-12-04T09:51:21.107Z,3.00
2022-12-04T09:53:51.394Z,3.00
2022-12-04T09:56:19.861Z,3.00
2022-12-04T09:58:52.248Z,3.00
2022-12-04T10:01:32.015Z,2.90
2022-12-04T10:04:05.631Z,3.00
2022-12-04T10:06:43.077Z,3.00
2022-12-04T10:09:28.129Z,3.00
2022-12-04T10:12:22.186Z,3.10
2022-12-04T10:15:26.168Z,3.00
2022-12-04T10:17:59.495Z,3.10
2022-12-04T10:20:50.651Z,3.10
2022-12-04T10:23:41.857Z,3.20
2022-12-04T10:26:16.413Z,3.30
2022-12-04T10:28:54.987Z,3.30
2022-12-04T10:31:24.532Z,3.30
2022-12-04T10:33:53.459Z,3.30
2022-12-04T10:36:23.557Z,3.30
2022-12-04T10:39:00.107Z,3.30
2022-12-04T10:41:39.132Z,3.40
2022-12-04T10:44:06.337Z,3.40
2022-12-04T10:46:35.264Z,3.40
2022-12-04T10:49:12.395Z,3.40
2022-12-04T10:51:42.235Z,3.30
2022-12-04T10:54:25.234Z,3.30
2022-12-04T10:57:00.153Z,3.30
2022-12-04T10:59:28.346Z,3.30
2022-12-04T11:02:10.879Z,3.30
2022-12-04T11:04:38.484Z,3.30
2022-12-04T11:07:27.741Z,3.40
2022-12-04T11:10:17.442Z,3.40
2022-12-04T11:12:55.586Z,3.40
2022-12-04T11:15:23.820Z,3.40
2022-12-04T11:17:52.703Z,3.40
2022-12-04T11:20:24.419Z,3.40
2022-12-04T11:22:57.253Z,3.40
2022-12-04T11:25:27.275Z,3.40
2022-12-04T11:27:56.953Z,3.40
2022-12-04T11:30:36.892Z,3.40
2022-12-04T11:33:15.335Z,3.50
2022-12-04T11:35:42.738Z,3.50
2022-12-04T11:38:16.216Z,3.50
2022-12-04T11:40:52.778Z,3.50
2022-12-04T11:43:20.769Z,3.50
2022-12-04T11:46:02.776Z,3.50
2022-12-04T11:48:31.578Z,3.50
2022-12-04T11:51:30.766Z,3.50
2022-12-04T11:54:10.420Z,3.50
2022-12-04T11:56:47.036Z,3.50
2022-12-04T11:59:24.949Z,3.60
2022-12-04T12:02:27.344Z,3.60
2022-12-04T12:05:03.385Z,3.60
2022-12-04T12:07:45.630Z,3.60
2022-12-04T12:10:21.711Z,3.60
2022-12-04T12:13:04.021Z,3.50
2022-12-04T12:15:49.403Z,3.50
2022-12-04T12:18:35.043Z,3.50
2022-12-04T12:21:23.359Z,3.50
2022-12-04T12:24:15.204Z,3.50
2022-12-04T12:27:01.102Z,3.60
2022-12-04T12:30:01.657Z,3.70
2022-12-04T12:32:47.230Z,3.70
2022-12-04T12:35:29.913Z,3.70
2022-12-04T12:38:03.960Z,3.70
2022-12-04T12:40:44.746Z,3.70
2022-12-04T12:43:39.213Z,3.70
2022-12-04T12:46:15.593Z,3.80
2022-12-04T12:49:07.006Z,3.80
2022-12-04T12:51:52.760Z,3.70
2022-12-04T12:54:38.673Z,3.70
2022-12-04T12:57:24.023Z,3.80
2022-12-04T12:59:58.398Z,3.80
2022-12-04T13:02:30.417Z,3.80
2022-12-04T13:05:01.563Z,3.80
2022-12-04T13:08:02.944Z,3.80
2022-12-04T13:10:39.969Z,3.80
2022-12-04T13:13:14.031Z,3.90
2022-12-04T13:15:48.761Z,3.90
2022-12-04T13:18:32.810Z,3.90
2022-12-04T13:21:06.269Z,3.80
2022-12-04T13:24:10.536Z,3.80
2022-12-04T13:27:03.501Z,3.70
2022-12-04T13:29:54.785Z,3.50
2022-12-04T13:32:51.576Z,3.60
2022-12-04T13:35:27.466Z,3.60
2022-12-04T13:38:07.083Z,3.70
2022-12-04T13:40:43.869Z,3.60
2022-12-04T13:43:29.041Z,3.70
2022-12-04T13:46:00.126Z,3.70
2022-12-04T13:48:40.952Z,3.70
2022-12-04T13:51:35.033Z,3.70
2022-12-04T13:54:24.436Z,3.80
2022-12-04T13:56:55.493Z,3.80
2022-12-04T13:59:24.602Z,3.70
2022-12-04T14:01:57.508Z,3.80
2022-12-04T14:04:46.643Z,3.80
2022-12-04T14:07:33.509Z,3.80
2022-12-04T14:10:16.786Z,3.80
2022-12-04T14:12:56.964Z,3.80
2022-12-04T14:15:27.375Z,3.80
2022-12-04T14:18:09.179Z,3.80
2022-12-04T14:20:36.978Z,3.80
2022-12-04T14:23:33.884Z,3.90
2022-12-04T14:26:03.084Z,3.90
2022-12-04T14:28:38.720Z,3.90
2022-12-04T14:31:09.089Z,3.90
2022-12-04T14:33:52.225Z,3.90
2022-12-04T14:36:25.493Z,3.90
2022-12-04T14:39:24.788Z,3.90
2022-12-04T14:41:56.896Z,3.90
2022-12-04T14:44:29.426Z,4.00
2022-12-04T14:47:35.170Z,3.90
2022-12-04T14:50:20.688Z,3.90
2022-12-04T14:52:50.950Z,3.90
2022-12-04T14:55:46.738Z,3.90
2022-12-04T14:58:30.441Z,3.90
2022-12-04T15:01:04.190Z,3.90
2022-12-04T15:03:36.404Z,3.90
2022-12-04T15:06:11.883Z,4.00
2022-12-04T15:08:49.490Z,3.90
2022-12-04T15:11:39.718Z,3.90
2022-12-04T15:14:14.010Z,3.90
2022-12-04T15:16:41.579Z,3.80
2022-12-04T15:19:21.162Z,3.70
2022-12-04T15:21:48.963Z,3.70
2022-12-04T15:24:24.203Z,3.60
2022-12-04T15:26:55.103Z,3.60
2022-12-04T15:29:31.527Z,3.60
2022-12-04T15:32:02.847Z,3.50
2022-12-04T15:34:46.086Z,3.50
2022-12-04T15:37:19.663Z,3.50
2022-12-04T15:39:48.498Z,3.40
2022-12-04T15:42:24.643Z,3.40
2022-12-04T15:45:08.706Z,3.50
2022-12-04T15:47:53.357Z,3.40
2022-12-04T15:50:23.433Z,3.40
2022-12-04T15:53:06.513Z,3.40
2022-12-04T15:55:37.867Z,3.30
2022-12-04T15:58:22.430Z,3.30
2022-12-04T16:00:59.111Z,3.20
2022-12-04T16:03:34.540Z,3.30
2022-12-04T16:06:07.913Z,3.20
2022-12-04T16:08:40.037Z,3.20
2022-12-04T16:11:17.904Z,3.20
2022-12-04T16:13:45.247Z,3.20
2022-12-04T16:16:18.005Z,3.10
2022-12-04T16:18:46.282Z,3.10
2022-12-04T16:21:19.291Z,3.10
2022-12-04T16:23:46.432Z,3.10
2022-12-04T16:26:15.664Z,3.10
2022-12-04T16:28:42.850Z,3.20
2022-12-04T16:31:13.967Z,3.20
2022-12-04T16:33:41.168Z,3.20
2022-12-04T16:36:10.891Z,3.20
2022-12-04T16:38:38.059Z,3.10
2022-12-04T16:41:05.510Z,3.10
2022-12-04T16:43:32.677Z,3.10
2022-12-04T16:46:01.450Z,3.00
2022-12-04T16:48:29.606Z,2.90
2022-12-04T16:50:56.763Z,2.90
2022-12-04T16:53:23.947Z,2.90
2022-12-04T16:55:52.721Z,2.90
2022-12-04T16:58:20.542Z,2.90
2022-12-04T17:00:56.022Z,2.90
2022-12-04T17:03:28.982Z,2.80
2022-12-04T17:05:56.939Z,2.80
2022-12-04T17:08:25.190Z,2.80
2022-12-04T17:10:52.990Z,2.80
2022-12-04T17:13:21.332Z,2.90
2022-12-04T17:15:48.829Z,2.90
2022-12-04T17:18:20.734Z,2.80
2022-12-04T17:20:48.779Z,2.80
2022-12-04T17:23:16.225Z,2.90
2022-12-04T17:25:43.458Z,2.90
2022-12-04T17:28:11.727Z,2.90
2022-12-04T17:30:38.899Z,2.90
2022-12-04T17:33:06.075Z,3.00
2022-12-04T17:35:33.226Z,2.90
2022-12-04T17:38:05.639Z,2.90
2022-12-04T17:40:33.671Z,3.00
2022-12-04T17:43:01.703Z,3.00
2022-12-04T17:45:28.941Z,3.10
2022-12-04T17:47:56.088Z,3.10
2022-12-04T17:50:23.273Z,3.10
2022-12-04T17:52:50.451Z,3.10
2022-12-04T17:55:17.901Z,3.10
2022-12-04T17:57:45.025Z,3.20
2022-12-04T18:00:12.414Z,3.20
2022-12-04T18:02:41.498Z,3.20
2022-12-04T18:05:09.775Z,3.20
2022-12-04T18:07:37.006Z,3.20
2022-12-04T18:10:04.762Z,3.30
2022-12-04T18:12:31.938Z,3.20
2022-12-04T18:14:59.179Z,3.20
2022-12-04T18:17:26.850Z,3.20
2022-12-04T18:19:54.137Z,3.30
2022-12-04T18:22:21.470Z,3.30
2022-12-04T18:24:49.745Z,3.30
2022-12-04T18:27:16.870Z,3.30
2022-12-04T18:29:44.066Z,3.30
2022-12-04T18:32:11.275Z,3.20
2022-12-04T18:34:38.473Z,3.20
2022-12-04T18:37:05.657Z,3.20
2022-12-04T18:39:32.815Z,3.30
2022-12-04T18:41:59.961Z,3.30
2022-12-04T18:44:27.174Z,3.20
2022-12-04T18:46:54.316Z,3.30
2022-12-04T18:49:21.478Z,3.30
2022-12-04T18:51:50.296Z,3.20
2022-12-04T18:54:20.734Z,3.20
2022-12-04T18:56:48.377Z,3.20
2022-12-04T18:59:25.342Z,3.20
2022-12-04T19:01:53.657Z,3.20
2022-12-04T19:04:23.427Z,3.20
2022-12-04T19:06:53.414Z,3.20
2022-12-04T19:09:40.791Z,3.20
2022-12-04T19:12:11.535Z,3.20
2022-12-04T19:14:39.627Z,3.20
2022-12-04T19:17:06.940Z,3.20
2022-12-04T19:19:34.214Z,3.20
2022-12-04T19:22:02.006Z,3.20
2022-12-04T19:24:29.711Z,3.10
2022-12-04T19:26:56.866Z,3.10
2022-12-04T19:29:24.050Z,3.10
2022-12-04T19:31:56.029Z,3.00
2022-12-04T19:34:26.395Z,3.00
2022-12-04T19:36:56.776Z,3.00
2022-12-04T19:39:23.945Z,3.10
2022-12-04T19:41:52.798Z,3.10
2022-12-04T19:47:10.427Z,3.10
2022-12-04T19:49:37.654Z,3.10
2022-12-04T19:52:05.458Z,3.10
2022-12-04T19:54:32.638Z,3.10
2022-12-04T19:56:59.823Z,3.10
2022-12-04T19:59:30.458Z,3.00
2022-12-04T20:02:00.576Z,3.00
2022-12-04T20:04:27.843Z,3.00
2022-12-04T20:06:55.284Z,3.00
2022-12-04T20:09:22.863Z,3.00
2022-12-04T20:11:50.103Z,3.00
2022-12-04T20:14:17.551Z,3.00
2022-12-04T20:16:44.932Z,3.10
2022-12-04T20:19:17.358Z,3.00
2022-12-04T20:21:46.081Z,3.00
2022-12-04T20:24:16.531Z,3.00
2022-12-04T20:26:45.197Z,3.00
2022-12-04T20:29:14.604Z,2.90
2022-12-04T20:31:44.609Z,3.00
2022-12-04T20:34:16.936Z,3.00
2022-12-04T20:36:45.582Z,3.00
2022-12-04T20:39:13.754Z,2.90
2022-12-04T20:41:41.275Z,2.90
2022-12-04T20:44:11.394Z,2.90
2022-12-04T20:46:39.943Z,2.90
2022-12-04T20:49:20.856Z,2.90
2022-12-04T20:51:51.053Z,2.90
2022-12-04T20:54:20.660Z,2.90
2022-12-04T20:56:49.147Z,2.80
2022-12-04T20:59:18.250Z,2.80
2022-12-04T21:01:45.594Z,2.80
2022-12-04T21:04:13.292Z,2.80
2022-12-04T21:06:41.718Z,2.80
2022-12-04T21:09:19.413Z,2.80
2022-12-04T21:11:54.413Z,2.80
2022-12-04T21:14:44.218Z,2.90
2022-12-04T21:17:16.576Z,2.80
2022-12-04T21:19:47.418Z,2.80
2022-12-04T21:22:15.089Z,2.80
2022-12-04T21:24:43.009Z,2.90
2022-12-04T21:27:15.687Z,2.80
2022-12-04T21:29:46.236Z,2.80
2022-12-04T21:32:13.430Z,2.80
2022-12-04T21:34:40.600Z,2.90
2022-12-04T21:37:07.748Z,2.80
2022-12-04T21:39:35.910Z,2.80
2022-12-04T21:42:22.203Z,2.80
2022-12-04T21:44:49.490Z,2.80
2022-12-04T21:47:16.730Z,2.80
2022-12-04T21:49:43.946Z,2.80
2022-12-04T21:52:11.123Z,2.80
2022-12-04T21:54:38.430Z,2.80
2022-12-04T21:57:05.586Z,2.80
2022-12-04T21:59:32.787Z,2.80
2022-12-04T22:02:00.539Z,2.80
2022-12-04T22:04:28.064Z,2.80
2022-12-04T22:06:55.207Z,2.80
2022-12-04T22:09:22.438Z,2.80
2022-12-04T22:11:49.585Z,2.90
2022-12-04T22:14:16.764Z,2.90
2022-12-04T22:16:44.008Z,2.80
2022-12-04T22:19:12.482Z,2.90
2022-12-04T22:21:40.264Z,2.90
2022-12-04T22:24:08.051Z,2.90
2022-12-04T22:26:35.183Z,2.80
2022-12-04T22:29:20.702Z,2.80
2022-12-04T22:31:50.502Z,2.80
2022-12-04T22:34:17.782Z,2.80
2022-12-04T22:36:44.942Z,2.80
2022-12-04T22:39:12.165Z,2.80
2022-12-04T22:41:39.359Z,2.80
2022-12-04T22:44:06.571Z,2.80
2022-12-04T22:46:34.267Z,2.70
2022-12-04T22:49:01.579Z,2.70
2022-12-04T22:51:29.102Z,2.70
2022-12-04T22:53:57.700Z,2.70
2022-12-04T22:56:30.484Z,2.70
2022-12-04T22:58:58.863Z,2.70
2022-12-04T23:01:28.825Z,2.70
2022-12-04T23:03:56.530Z,2.70
2022-12-04T23:06:26.188Z,2.60
2022-12-04T23:09:06.122Z,2.70
2022-12-04T23:11:34.223Z,2.70
2022-12-04T23:14:03.881Z,2.60
2022-12-04T23:16:32.905Z,2.60
2022-12-04T23:19:00.292Z,2.60
2022-12-04T23:21:28.116Z,2.50
2022-12-04T23:23:56.159Z,2.50
2022-12-04T23:26:32.675Z,2.50
2022-12-04T23:29:01.576Z,2.60
2022-12-04T23:31:29.624Z,2.60
2022-12-04T23:33:57.027Z,2.60
2022-12-04T23:36:24.771Z,2.60
2022-12-04T23:38:51.970Z,2.60
2022-12-04T23:41:19.503Z,2.60
2022-12-04T23:43:48.034Z,2.60
2022-12-04T23:46:18.303Z,2.60
2022-12-04T23:48:46.098Z,2.60
2022-12-04T23:51:15.896Z,2.60
2022-12-04T23:53:43.600Z,2.60
2022-12-04T23:56:14.756Z,2.60
2022-12-04T23:58:43.205Z,2.60
